Time;durP1;ratioP1;P1;durP2;ratioP2;P2;SDS_P1;SDS_P2;PMS_P1;PMS_P2;Temp;Humidity;BMP_temperature;BMP_pressure;BME280_temperature;BME280_humidity;BME280_pressure;Samples;Min_cycle;Max_cycle;Signal;HPM_P1;HPM_P2
2021/09/06 00:01:42;;;;;;;10.95;7.03;;;12.70;99.90;;;;;;4913431;29;20044;-80
2021/09/06 00:04:09;;;;;;;11.70;7.47;;;12.60;99.90;;;;;;4929048;29;20429;-80
2021/09/06 00:06:39;;;;;;;9.57;6.40;;;12.50;99.90;;;;;;4913482;29;20044;-79
2021/09/06 00:09:05;;;;;;;10.80;6.45;;;12.50;99.90;;;;;;4929054;29;20040;-80
2021/09/06 00:11:31;;;;;;;11.73;6.43;;;12.40;99.90;;;;;;4929062;29;20104;-80
2021/09/06 00:13:56;;;;;;;11.10;6.93;;;12.40;99.90;;;;;;4913189;29;20040;-80
2021/09/06 00:16:22;;;;;;;10.68;7.35;;;12.40;99.90;;;;;;4913104;29;20040;-80
2021/09/06 00:18:48;;;;;;;11.32;6.78;;;12.40;99.90;;;;;;4929385;29;20032;-80
2021/09/06 00:21:14;;;;;;;12.05;7.55;;;12.40;99.90;;;;;;4931900;29;20075;-79
2021/09/06 00:23:39;;;;;;;11.10;6.47;;;12.50;99.90;;;;;;4932038;29;20044;-79
2021/09/06 00:26:06;;;;;;;10.40;6.93;;;12.40;99.90;;;;;;4958980;28;20410;-79
2021/09/06 00:28:31;;;;;;;10.15;6.28;;;12.40;99.90;;;;;;4987363;28;20027;-80
2021/09/06 00:30:57;;;;;;;12.07;7.05;;;12.30;99.90;;;;;;4987430;28;20037;-80
2021/09/06 00:33:23;;;;;;;13.52;7.07;;;12.30;99.90;;;;;;5003627;28;20281;-80
2021/09/06 00:35:49;;;;;;;12.20;7.53;;;12.20;99.90;;;;;;4988825;28;20117;-80
2021/09/06 00:38:20;;;;;;;10.48;7.13;;;12.20;99.90;;;;;;4988049;28;20038;-80
2021/09/06 00:40:48;;;;;;;11.02;7.40;;;12.10;99.90;;;;;;5003619;28;20066;-82
2021/09/06 00:43:14;;;;;;;10.50;7.03;;;12.10;99.90;;;;;;4987210;28;20054;-79
2021/09/06 00:45:41;;;;;;;12.80;6.93;;;12.10;99.90;;;;;;5003436;28;20402;-82
2021/09/06 00:48:08;;;;;;;13.07;7.68;;;12.10;99.90;;;;;;4987021;28;20026;-82
2021/09/06 00:50:35;;;;;;;11.88;7.65;;;12.00;99.90;;;;;;4986704;28;20058;-82
2021/09/06 00:53:02;;;;;;;11.18;7.15;;;12.00;99.90;;;;;;4987084;28;20057;-82
2021/09/06 00:55:28;;;;;;;11.82;7.70;;;12.00;99.90;;;;;;4986886;28;20443;-82
2021/09/06 00:57:57;;;;;;;12.05;8.30;;;12.00;99.90;;;;;;5003267;28;20037;-82
2021/09/06 01:00:22;;;;;;;9.88;6.85;;;12.00;99.90;;;;;;5002871;28;20064;-82
2021/09/06 01:02:48;;;;;;;9.98;7.05;;;12.00;99.90;;;;;;5003216;28;20050;-82
2021/09/06 01:05:16;;;;;;;10.13;6.45;;;12.00;99.90;;;;;;4987496;28;20102;-82
2021/09/06 01:08:00;;;;;;;12.82;7.28;;;11.90;99.90;;;;;;5000208;28;20046;-82
2021/09/06 01:10:44;;;;;;;9.68;6.55;;;11.90;99.90;;;;;;4986860;28;20049;-81
2021/09/06 01:13:45;;;;;;;10.55;7.10;;;11.80;99.90;;;;;;4987070;28;20130;-82
2021/09/06 01:16:11;;;;;;;12.05;8.05;;;11.80;99.90;;;;;;4993898;28;20059;-82
2021/09/06 01:18:39;;;;;;;12.82;7.95;;;11.80;99.90;;;;;;4998860;28;20082;-82
2021/09/06 01:21:05;;;;;;;11.93;7.43;;;11.70;99.90;;;;;;5002481;28;20031;-82
2021/09/06 01:23:48;;;;;;;11.35;8.25;;;11.60;99.90;;;;;;5002628;28;20042;-82
2021/09/06 01:26:16;;;;;;;10.35;7.05;;;11.70;99.90;;;;;;5002663;28;20027;-82
2021/09/06 01:28:42;;;;;;;13.93;7.78;;;11.70;99.90;;;;;;5002565;28;20051;-81
2021/09/06 01:31:08;;;;;;;12.88;8.25;;;11.70;99.90;;;;;;5002491;28;20058;-82
2021/09/06 01:33:41;;;;;;;12.57;7.57;;;11.60;99.90;;;;;;4971206;28;20042;-82
2021/09/06 01:36:07;;;;;;;11.15;7.07;;;11.50;99.90;;;;;;4986040;28;20031;-81
2021/09/06 01:38:34;;;;;;;12.38;8.43;;;11.50;99.90;;;;;;5002357;28;20031;-82
2021/09/06 01:41:01;;;;;;;12.00;7.32;;;11.50;99.90;;;;;;5002184;28;20119;-82
2021/09/06 01:43:27;;;;;;;15.75;9.32;;;11.50;99.90;;;;;;5002434;28;20047;-82
2021/09/06 01:45:53;;;;;;;12.85;8.20;;;11.50;99.90;;;;;;5002256;28;20062;-82
2021/09/06 01:48:19;;;;;;;15.30;8.20;;;11.50;99.90;;;;;;5002053;28;20034;-82
2021/09/06 01:50:46;;;;;;;13.18;7.88;;;11.40;99.90;;;;;;4969492;28;20058;-82
2021/09/06 01:53:13;;;;;;;15.00;8.60;;;11.40;99.90;;;;;;4986177;28;20375;-82
2021/09/06 01:55:39;;;;;;;14.75;8.93;;;11.40;99.90;;;;;;4969864;28;20027;-82
2021/09/06 01:58:10;;;;;;;13.68;8.73;;;11.40;99.90;;;;;;4970800;28;20031;-82
2021/09/06 02:00:36;;;;;;;13.25;8.15;;;11.50;99.90;;;;;;4969830;28;20034;-82
2021/09/06 02:03:03;;;;;;;13.80;7.97;;;11.30;99.90;;;;;;4986167;28;20030;-82
2021/09/06 02:05:40;;;;;;;12.40;7.78;;;11.30;99.90;;;;;;5001729;28;20065;-82
2021/09/06 02:08:08;;;;;;;13.80;8.70;;;11.30;99.90;;;;;;5001775;28;20096;-82
2021/09/06 02:10:34;;;;;;;13.82;8.10;;;11.30;99.90;;;;;;4985699;28;20065;-82
2021/09/06 02:13:01;;;;;;;12.27;9.40;;;11.20;99.90;;;;;;4985788;28;20030;-82
2021/09/06 02:15:27;;;;;;;13.77;8.60;;;11.30;99.90;;;;;;5001855;28;20094;-82
2021/09/06 02:17:53;;;;;;;13.02;8.00;;;11.20;99.90;;;;;;5001333;28;20058;-82
2021/09/06 02:20:20;;;;;;;13.52;7.15;;;11.20;99.90;;;;;;5001125;28;20026;-82
2021/09/06 02:22:46;;;;;;;11.90;7.70;;;11.10;99.90;;;;;;5001609;28;20031;-82
2021/09/06 02:25:12;;;;;;;14.15;8.05;;;11.10;99.90;;;;;;5001388;28;20479;-82
2021/09/06 02:27:38;;;;;;;13.52;7.93;;;11.20;99.90;;;;;;5001705;28;20023;-82
2021/09/06 02:30:13;;;;;;;13.35;7.90;;;11.10;99.90;;;;;;5001550;28;20029;-82
2021/09/06 02:32:39;;;;;;;14.00;8.27;;;11.20;99.90;;;;;;5001635;28;20044;-82
2021/09/06 02:35:20;;;;;;;15.73;9.15;;;11.20;99.90;;;;;;5001581;28;20456;-82
2021/09/06 02:37:47;;;;;;;12.57;8.13;;;11.20;99.90;;;;;;4969299;28;20390;-82
2021/09/06 02:40:16;;;;;;;12.98;8.30;;;11.20;99.90;;;;;;4985435;28;20034;-82
2021/09/06 02:42:45;;;;;;;13.80;8.30;;;11.20;99.90;;;;;;5001422;28;20031;-82
2021/09/06 02:45:11;;;;;;;14.20;9.25;;;11.20;99.90;;;;;;4985407;28;20057;-82
2021/09/06 02:47:44;;;;;;;15.48;7.82;;;11.20;99.90;;;;;;4997841;22;20033;-82
2021/09/06 02:50:12;;;;;;;13.35;7.93;;;11.10;99.90;;;;;;5024761;28;20038;-82
2021/09/06 02:52:41;;;;;;;15.68;8.18;;;11.10;99.90;;;;;;5024556;28;20119;-82
2021/09/06 02:55:07;;;;;;;13.23;8.25;;;11.00;99.90;;;;;;5024721;28;20097;-81
2021/09/06 02:57:37;;;;;;;13.93;8.15;;;11.10;99.90;;;;;;5008766;28;20084;-81
2021/09/06 03:00:03;;;;;;;14.40;8.82;;;11.10;99.90;;;;;;5024624;28;20417;-82
2021/09/06 03:02:31;;;;;;;14.63;9.05;;;11.10;99.90;;;;;;5024663;28;20022;-82
2021/09/06 03:04:58;;;;;;;15.90;9.30;;;11.00;99.90;;;;;;5024540;28;20497;-82
2021/09/06 03:07:24;;;;;;;14.27;8.43;;;11.00;99.90;;;;;;5008124;28;20126;-82
2021/09/06 03:09:51;;;;;;;17.58;9.80;;;11.00;99.90;;;;;;5024341;28;20030;-82
2021/09/06 03:12:16;;;;;;;14.95;9.45;;;11.10;99.90;;;;;;5024564;28;20532;-82
2021/09/06 03:14:45;;;;;;;15.80;9.35;;;11.00;99.90;;;;;;5024458;28;20026;-82
2021/09/06 03:17:11;;;;;;;17.60;10.20;;;10.90;99.90;;;;;;5024209;28;20048;-81
2021/09/06 03:19:36;;;;;;;16.77;9.68;;;10.80;99.90;;;;;;5024132;28;20026;-82
2021/09/06 03:22:03;;;;;;;14.52;9.38;;;10.80;99.90;;;;;;5023865;28;20093;-80
2021/09/06 03:24:29;;;;;;;18.35;10.38;;;10.90;99.90;;;;;;5024111;28;20076;-79
2021/09/06 03:26:55;;;;;;;16.38;9.90;;;10.80;99.90;;;;;;5024012;28;20096;-82
2021/09/06 03:29:21;;;;;;;17.73;9.52;;;10.90;99.90;;;;;;5024088;28;20086;-81
2021/09/06 03:31:46;;;;;;;15.88;9.15;;;10.90;99.90;;;;;;5027511;28;20025;-82
2021/09/06 03:34:14;;;;;;;17.77;10.32;;;10.80;99.90;;;;;;5027694;28;20026;-82
2021/09/06 03:36:42;;;;;;;15.30;9.00;;;10.80;99.90;;;;;;5027736;28;20037;-82
2021/09/06 03:39:14;;;;;;;14.70;9.13;;;10.80;99.90;;;;;;5028874;28;20049;-81
2021/09/06 03:41:39;;;;;;;16.67;9.32;;;10.70;99.90;;;;;;5027470;28;20026;-82
2021/09/06 03:44:06;;;;;;;15.48;9.13;;;10.70;99.90;;;;;;5027531;28;20030;-82
2021/09/06 03:46:52;;;;;;;15.57;9.15;;;10.60;99.90;;;;;;5027283;28;20041;-83
2021/09/06 03:49:18;;;;;;;14.40;9.02;;;10.70;99.90;;;;;;4986702;28;20042;-82
2021/09/06 03:51:46;;;;;;;16.75;9.95;;;10.70;99.90;;;;;;4971033;28;20043;-82
2021/09/06 03:54:15;;;;;;;12.87;8.53;;;10.60;99.90;;;;;;4970760;28;20034;-82
2021/09/06 03:56:41;;;;;;;14.85;8.60;;;10.50;99.90;;;;;;4970724;28;20061;-82
2021/09/06 03:59:07;;;;;;;17.70;9.50;;;10.50;99.90;;;;;;4970754;28;20097;-83
2021/09/06 04:01:33;;;;;;;15.60;8.93;;;10.60;99.90;;;;;;4970562;28;20038;-82
2021/09/06 04:03:59;;;;;;;15.20;9.63;;;10.60;99.90;;;;;;4954618;28;20041;-82
2021/09/06 04:06:25;;;;;;;16.58;10.32;;;10.50;99.90;;;;;;4986862;28;20137;-82
2021/09/06 04:08:51;;;;;;;15.43;9.35;;;10.50;99.90;;;;;;4950987;29;20122;-82
2021/09/06 04:11:17;;;;;;;16.13;9.75;;;10.60;99.90;;;;;;4967311;28;20154;-82
2021/09/06 04:13:44;;;;;;;14.13;8.65;;;10.60;99.90;;;;;;4951223;29;20035;-82
2021/09/06 04:16:10;;;;;;;16.13;9.70;;;10.60;99.90;;;;;;4967328;28;20055;-82
2021/09/06 04:18:37;;;;;;;15.05;9.68;;;10.70;99.90;;;;;;4971012;28;20062;-82
2021/09/06 04:21:04;;;;;;;15.93;9.27;;;10.70;99.90;;;;;;4970263;28;20613;-82
2021/09/06 04:23:32;;;;;;;14.98;9.55;;;10.70;99.90;;;;;;4986265;28;20030;-82
2021/09/06 04:26:01;;;;;;;14.63;9.10;;;10.50;99.90;;;;;;4985136;28;20406;-82
2021/09/06 04:28:31;;;;;;;14.95;9.30;;;10.50;99.90;;;;;;5010920;28;20192;-85
2021/09/06 04:30:57;;;;;;;15.43;9.02;;;10.50;99.90;;;;;;5026699;28;20461;-85
2021/09/06 04:33:29;;;;;;;14.85;9.35;;;10.60;99.90;;;;;;5026609;28;20022;-85
2021/09/06 04:35:56;;;;;;;16.27;8.75;;;10.60;99.90;;;;;;5024395;28;20390;-85
2021/09/06 04:38:24;;;;;;;16.85;9.27;;;10.70;99.90;;;;;;5026194;28;20018;-85
2021/09/06 04:40:49;;;;;;;14.98;8.52;;;10.60;99.90;;;;;;5026265;28;20061;-85
2021/09/06 04:43:15;;;;;;;15.52;9.63;;;10.60;99.90;;;;;;5025821;28;20570;-85
2021/09/06 04:45:41;;;;;;;13.25;9.15;;;10.70;99.90;;;;;;5026286;28;20034;-85
2021/09/06 04:48:09;;;;;;;15.05;9.82;;;10.80;99.90;;;;;;5025831;28;20034;-85
2021/09/06 04:50:34;;;;;;;14.77;9.38;;;10.90;99.90;;;;;;5025666;28;20041;-85
2021/09/06 04:53:00;;;;;;;13.95;8.93;;;10.80;99.90;;;;;;5026354;28;20041;-85
2021/09/06 04:55:25;;;;;;;14.73;9.32;;;10.70;99.90;;;;;;5026359;28;20033;-85
2021/09/06 04:57:51;;;;;;;11.95;7.07;;;10.70;99.90;;;;;;5026115;28;20041;-85
2021/09/06 05:00:17;;;;;;;14.57;8.75;;;10.80;99.90;;;;;;5026303;28;20042;-85
2021/09/06 05:02:43;;;;;;;13.82;8.70;;;10.90;99.90;;;;;;5025900;28;20026;-84
2021/09/06 05:05:09;;;;;;;13.40;8.73;;;10.80;99.90;;;;;;5011503;28;20068;-85
2021/09/06 05:07:36;;;;;;;13.77;8.20;;;10.70;99.90;;;;;;5025316;28;20026;-85
2021/09/06 05:10:03;;;;;;;14.50;8.35;;;10.80;99.90;;;;;;5025205;28;20030;-85
2021/09/06 05:12:30;;;;;;;13.10;8.65;;;10.70;99.90;;;;;;5025551;28;20030;-85
2021/09/06 05:14:56;;;;;;;13.88;8.98;;;10.90;99.90;;;;;;5025233;28;20053;-85
2021/09/06 05:17:22;;;;;;;11.77;7.07;;;10.90;99.90;;;;;;5025214;28;20026;-85
2021/09/06 05:19:47;;;;;;;14.43;8.52;;;11.00;99.90;;;;;;5008666;28;20439;-85
2021/09/06 05:22:13;;;;;;;12.95;8.10;;;11.00;99.90;;;;;;5008899;28;20124;-85
2021/09/06 05:24:39;;;;;;;12.63;8.65;;;11.00;99.90;;;;;;5025002;28;20042;-85
2021/09/06 05:27:07;;;;;;;15.32;9.55;;;11.00;99.90;;;;;;5024806;28;20026;-85
2021/09/06 05:29:33;;;;;;;12.20;8.95;;;11.00;99.90;;;;;;5024910;28;20158;-84
2021/09/06 05:31:58;;;;;;;10.40;7.45;;;10.90;99.90;;;;;;5025007;28;20089;-84
2021/09/06 05:34:25;;;;;;;14.10;8.73;;;11.00;99.90;;;;;;5024532;28;20116;-84
2021/09/06 05:36:50;;;;;;;13.80;8.07;;;11.10;99.90;;;;;;5025094;28;20526;-84
2021/09/06 05:39:16;;;;;;;12.43;8.70;;;11.00;99.90;;;;;;5023886;28;20045;-85
2021/09/06 05:41:51;;;;;;;12.75;8.07;;;11.00;99.90;;;;;;5009286;28;20033;-84
2021/09/06 05:44:18;;;;;;;13.35;8.13;;;11.00;99.90;;;;;;5024641;28;20093;-85
2021/09/06 05:47:06;;;;;;;12.75;8.20;;;11.10;99.90;;;;;;5024530;28;20089;-85
2021/09/06 05:49:36;;;;;;;12.20;8.27;;;11.10;99.90;;;;;;4967512;28;20043;-84
2021/09/06 05:52:02;;;;;;;12.13;7.50;;;11.20;99.90;;;;;;4968167;28;20078;-84
2021/09/06 05:54:33;;;;;;;14.02;8.95;;;11.30;99.90;;;;;;4967755;28;20112;-84
2021/09/06 05:57:00;;;;;;;8.57;6.25;;;11.30;99.90;;;;;;4967963;28;20031;-84
2021/09/06 05:59:27;;;;;;;15.25;9.70;;;11.40;99.90;;;;;;4967661;28;20023;-84
2021/09/06 06:01:53;;;;;;;15.45;9.63;;;11.40;99.90;;;;;;4984254;28;20054;-84
2021/09/06 06:04:18;;;;;;;13.57;8.32;;;11.40;99.90;;;;;;4967596;28;20046;-84
2021/09/06 06:06:48;;;;;;;13.80;8.43;;;11.50;99.90;;;;;;4968471;28;20063;-85
2021/09/06 06:09:14;;;;;;;9.23;6.47;;;11.40;99.90;;;;;;4983864;28;20039;-84
2021/09/06 06:11:41;;;;;;;9.77;6.88;;;11.50;99.90;;;;;;4951554;28;20061;-84
2021/09/06 06:14:14;;;;;;;10.00;7.05;;;11.70;99.90;;;;;;4952518;28;20129;-84
2021/09/06 06:16:42;;;;;;;11.38;7.38;;;11.80;99.90;;;;;;4951888;28;20062;-84
2021/09/06 06:19:07;;;;;;;10.35;7.43;;;11.80;99.90;;;;;;4947947;29;20086;-84
2021/09/06 06:21:48;;;;;;;10.13;7.07;;;11.80;99.90;;;;;;4948504;29;20028;-83
2021/09/06 06:24:33;;;;;;;10.02;7.00;;;12.00;99.90;;;;;;4948232;29;20055;-82
2021/09/06 06:27:18;;;;;;;9.85;6.70;;;12.10;99.90;;;;;;4991714;28;20034;-83
2021/09/06 06:29:44;;;;;;;9.85;6.45;;;12.20;99.90;;;;;;5004003;28;20086;-82
2021/09/06 06:32:12;;;;;;;12.07;7.80;;;12.30;99.90;;;;;;5004287;28;20057;-81
2021/09/06 06:34:37;;;;;;;9.48;7.25;;;12.40;99.90;;;;;;5003823;28;20077;-83
2021/09/06 06:37:04;;;;;;;12.77;8.82;;;12.40;99.90;;;;;;5004045;28;20030;-83
2021/09/06 06:39:31;;;;;;;14.55;9.98;;;12.50;99.90;;;;;;5003709;28;20061;-83
2021/09/06 06:41:57;;;;;;;16.35;11.27;;;12.50;99.90;;;;;;5003903;28;20026;-83
2021/09/06 06:44:25;;;;;;;16.38;11.13;;;12.60;99.90;;;;;;4987988;28;20030;-83
2021/09/06 06:47:11;;;;;;;19.05;11.32;;;12.60;99.90;;;;;;4987754;28;20105;-82
2021/09/06 06:49:37;;;;;;;17.42;12.63;;;12.70;99.90;;;;;;4947215;29;20047;-83
2021/09/06 06:52:04;;;;;;;16.75;10.95;;;12.70;99.90;;;;;;4963953;29;20039;-83
2021/09/06 06:54:30;;;;;;;18.15;10.48;;;13.00;99.90;;;;;;4964026;29;20075;-83
2021/09/06 06:56:56;;;;;;;16.17;10.88;;;13.20;99.90;;;;;;4947984;29;20044;-82
2021/09/06 06:59:21;;;;;;;14.75;10.27;;;13.20;99.90;;;;;;4963884;29;20039;-83
2021/09/06 07:01:47;;;;;;;11.65;8.63;;;13.40;99.90;;;;;;4963804;29;20115;-83
2021/09/06 07:04:13;;;;;;;12.48;8.20;;;13.50;99.90;;;;;;4947540;28;20046;-83
2021/09/06 07:06:41;;;;;;;14.38;10.70;;;13.50;99.90;;;;;;4951965;29;20035;-83
2021/09/06 07:09:07;;;;;;;14.63;9.75;;;13.40;99.90;;;;;;4950345;28;20031;-82
2021/09/06 07:11:34;;;;;;;10.65;6.95;;;13.70;99.90;;;;;;4988212;28;20027;-83
2021/09/06 07:14:02;;;;;;;15.38;9.98;;;13.90;99.90;;;;;;4988040;28;20669;-83
2021/09/06 07:16:27;;;;;;;13.63;10.00;;;13.80;99.90;;;;;;4971078;28;20031;-83
2021/09/06 07:18:53;;;;;;;12.95;9.10;;;14.10;99.90;;;;;;4986541;28;20027;-84
2021/09/06 07:21:19;;;;;;;13.35;9.48;;;14.30;99.90;;;;;;4954513;28;20172;-83
2021/09/06 07:23:45;;;;;;;13.50;9.10;;;14.40;99.90;;;;;;4986846;28;20529;-83
2021/09/06 07:26:11;;;;;;;13.98;9.50;;;14.50;99.90;;;;;;4984806;28;20038;-83
2021/09/06 07:28:37;;;;;;;15.18;10.20;;;14.60;99.90;;;;;;5026853;28;20022;-83
2021/09/06 07:31:03;;;;;;;13.80;9.52;;;14.70;99.90;;;;;;5010570;28;20034;-84
2021/09/06 07:33:29;;;;;;;14.05;8.50;;;14.80;99.90;;;;;;5010311;28;20029;-84
2021/09/06 07:35:55;;;;;;;12.45;8.93;;;14.80;99.90;;;;;;5026925;28;20036;-84
2021/09/06 07:38:24;;;;;;;20.17;14.00;;;14.90;99.90;;;;;;5026738;28;20130;-83
2021/09/06 07:40:50;;;;;;;17.13;11.45;;;14.50;99.90;;;;;;5010317;28;20026;-83
2021/09/06 07:43:16;;;;;;;17.67;12.20;;;14.80;99.90;;;;;;5010370;28;20086;-84
2021/09/06 07:45:44;;;;;;;16.02;9.93;;;15.00;99.90;;;;;;5026591;28;20042;-84
2021/09/06 07:48:10;;;;;;;19.00;13.25;;;15.10;99.90;;;;;;5024671;28;20040;-85
2021/09/06 07:50:44;;;;;;;19.10;13.70;;;14.90;99.90;;;;;;5026564;28;20430;-84
2021/09/06 07:53:10;;;;;;;19.33;13.35;;;15.20;99.90;;;;;;5026848;28;20041;-85
2021/09/06 07:55:36;;;;;;;21.42;14.32;;;15.30;99.90;;;;;;5026751;28;20092;-85
2021/09/06 07:58:01;;;;;;;21.92;14.27;;;15.60;99.90;;;;;;5026491;28;20478;-85
2021/09/06 08:00:28;;;;;;;17.67;11.40;;;15.90;99.90;;;;;;5026656;28;20037;-85
2021/09/06 08:02:54;;;;;;;17.35;11.60;;;16.30;99.90;;;;;;5026322;28;20030;-84
2021/09/06 08:05:29;;;;;;;16.42;10.57;;;16.60;99.90;;;;;;5026604;28;20034;-85
2021/09/06 08:07:58;;;;;;;16.30;9.02;;;17.00;99.90;;;;;;5026401;28;20037;-84
2021/09/06 08:10:24;;;;;;;17.20;9.48;;;17.30;99.90;;;;;;5027555;28;20501;-84
2021/09/06 08:12:50;;;;;;;13.77;9.32;;;17.50;99.90;;;;;;5009961;28;20022;-84
2021/09/06 08:15:17;;;;;;;15.05;11.63;;;17.70;99.90;;;;;;5010051;28;20030;-81
2021/09/06 08:17:43;;;;;;;17.02;12.13;;;17.10;99.90;;;;;;5024452;28;20026;-82
2021/09/06 08:20:12;;;;;;;14.95;9.98;;;17.50;99.90;;;;;;5026126;28;20030;-84
2021/09/06 08:22:38;;;;;;;20.63;13.63;;;17.70;99.90;;;;;;5009983;28;20029;-81
2021/09/06 08:25:06;;;;;;;16.98;12.40;;;17.60;99.90;;;;;;5009757;28;20042;-82
2021/09/06 08:27:32;;;;;;;18.58;11.48;;;18.10;99.90;;;;;;5026021;28;20094;-81
2021/09/06 08:29:58;;;;;;;17.50;11.50;;;18.20;99.90;;;;;;5009465;28;20030;-82
2021/09/06 08:32:24;;;;;;;13.60;9.38;;;18.30;99.90;;;;;;5025793;28;20029;-81
2021/09/06 08:34:52;;;;;;;14.35;9.45;;;18.30;99.90;;;;;;5026137;28;20034;-81
2021/09/06 08:37:21;;;;;;;12.23;9.00;;;18.50;99.90;;;;;;5025898;28;20394;-81
2021/09/06 08:39:47;;;;;;;11.18;8.30;;;18.90;99.90;;;;;;5025870;28;20487;-81
2021/09/06 08:42:14;;;;;;;17.08;10.38;;;19.00;99.90;;;;;;5025897;28;20038;-81
2021/09/06 08:44:41;;;;;;;13.55;8.73;;;18.70;99.90;;;;;;5025661;28;20061;-81
2021/09/06 08:47:08;;;;;;;11.35;7.95;;;19.10;99.90;;;;;;5025243;28;20065;-81
2021/09/06 08:49:34;;;;;;;9.95;7.63;;;19.40;99.90;;;;;;5025208;28;20069;-80
2021/09/06 08:51:59;;;;;;;12.85;9.30;;;19.30;99.90;;;;;;5025508;28;20491;-81
2021/09/06 08:54:25;;;;;;;10.43;7.63;;;19.30;99.90;;;;;;5009264;28;20470;-81
2021/09/06 08:56:51;;;;;;;11.43;8.27;;;19.30;99.90;;;;;;5025313;28;20478;-81
2021/09/06 08:59:18;;;;;;;16.90;10.82;;;19.30;99.90;;;;;;5025196;28;20025;-81
2021/09/06 09:01:53;;;;;;;14.98;9.75;;;19.20;99.90;;;;;;5024880;28;20469;-80
2021/09/06 09:04:45;;;;;;;13.20;8.77;;;19.30;99.90;;;;;;5025129;28;20072;-80
2021/09/06 09:07:28;;;;;;;11.10;8.25;;;19.20;99.90;;;;;;5010121;28;20034;-80
2021/09/06 09:10:46;;;;;;;11.48;8.07;;;19.30;99.90;;;;;;5025260;28;20580;-80
2021/09/06 09:13:31;;;;;;;12.85;7.78;;;19.50;99.90;;;;;;5011013;28;20048;-80
2021/09/06 09:16:26;;;;;;;9.93;7.45;;;19.70;99.90;;;;;;5006030;28;20088;-81
2021/09/06 09:19:23;;;;;;;18.38;11.43;;;19.90;99.90;;;;;;5006435;28;20065;-81
2021/09/06 09:22:11;;;;;;;12.43;9.20;;;19.80;99.90;;;;;;5005739;28;20057;-81
2021/09/06 09:25:06;;;;;;;17.05;10.07;;;19.80;99.90;;;;;;4992164;28;20034;-81
2021/09/06 09:27:52;;;;;;;16.25;10.10;;;20.00;99.90;;;;;;5005432;28;20022;-80
2021/09/06 09:30:33;;;;;;;15.48;10.90;;;20.00;99.90;;;;;;5005124;28;20394;-80
2021/09/06 09:33:28;;;;;;;16.05;9.32;;;19.60;99.90;;;;;;5008358;28;20032;-81
2021/09/06 09:36:34;;;;;;;16.08;10.80;;;20.00;99.90;;;;;;5005173;28;20037;-81
2021/09/06 09:39:13;;;;;;;11.38;7.68;;;20.00;99.90;;;;;;5004848;28;20513;-81
2021/09/06 09:42:01;;;;;;;11.30;7.25;;;20.50;99.90;;;;;;4989097;28;20399;-80
2021/09/06 09:44:27;;;;;;;11.70;7.35;;;20.70;99.90;;;;;;4988745;28;20039;-81
2021/09/06 09:47:19;;;;;;;10.50;6.10;;;20.80;99.90;;;;;;5004493;28;20037;-80
2021/09/06 09:49:46;;;;;;;;;;;21.20;99.90;;;;;;5004522;28;20137;-80
2021/09/06 09:52:12;;;;;;;8.15;5.43;;;21.40;99.90;;;;;;4988526;28;19909;-81
2021/09/06 09:54:38;;;;;;;9.10;6.30;;;21.50;99.90;;;;;;5004546;28;20030;-80
2021/09/06 09:57:05;;;;;;;9.60;7.13;;;21.40;99.90;;;;;;5004785;28;20033;-81
2021/09/06 09:59:32;;;;;;;9.00;6.63;;;21.20;99.90;;;;;;4986629;28;20383;-81
2021/09/06 10:02:07;;;;;;;9.68;6.07;;;21.50;99.90;;;;;;5004222;28;20053;-81
2021/09/06 10:04:35;;;;;;;10.93;7.15;;;21.60;99.90;;;;;;5004682;28;20073;-81
2021/09/06 10:07:04;;;;;;;14.13;8.07;;;21.40;99.90;;;;;;5004701;28;20076;-83
2021/09/06 10:09:42;;;;;;;14.07;10.38;;;21.10;99.90;;;;;;5022081;28;20030;-81
2021/09/06 10:12:09;;;;;;;15.25;9.48;;;20.90;99.90;;;;;;5007921;28;20029;-81
2021/09/06 10:14:35;;;;;;;13.10;8.38;;;20.80;99.90;;;;;;5024201;28;20125;-83
2021/09/06 10:17:03;;;;;;;14.85;9.65;;;20.80;99.90;;;;;;5007328;28;20030;-82
2021/09/06 10:19:49;;;;;;;14.13;9.10;;;20.80;99.90;;;;;;5023960;28;20034;-81
2021/09/06 10:22:23;;;;;;;14.02;9.80;;;20.90;99.90;;;;;;5024084;28;20109;-81
2021/09/06 10:25:01;;;;;;;11.32;8.27;;;20.90;99.90;;;;;;5023847;28;20096;-80
2021/09/06 10:27:29;;;;;;;12.30;8.13;;;21.20;99.90;;;;;;5024047;28;20025;-82
2021/09/06 10:30:03;;;;;;;10.07;6.78;;;21.00;99.90;;;;;;5023869;28;20033;-82
2021/09/06 10:32:44;;;;;;;10.80;6.97;;;21.00;99.90;;;;;;5023697;28;20061;-81
2021/09/06 10:35:18;;;;;;;13.43;8.43;;;21.50;99.90;;;;;;5007657;28;20389;-83
2021/09/06 10:37:46;;;;;;;10.88;6.70;;;21.50;99.90;;;;;;5007580;28;20040;-81
2021/09/06 10:40:26;;;;;;;10.02;6.72;;;21.60;99.90;;;;;;5006790;28;20026;-81
2021/09/06 10:42:51;;;;;;;9.48;5.63;;;21.80;99.90;;;;;;5023854;28;20106;-80
2021/09/06 10:45:17;;;;;;;12.35;8.90;;;21.90;99.90;;;;;;5023425;28;20069;-82
2021/09/06 10:47:43;;;;;;;13.45;8.52;;;21.70;99.90;;;;;;5023309;28;20185;-81
2021/09/06 10:50:19;;;;;;;11.93;8.07;;;21.70;99.90;;;;;;5024804;28;20034;-81
2021/09/06 10:52:48;;;;;;;11.73;7.53;;;21.50;99.90;;;;;;5023662;28;20022;-83
2021/09/06 10:55:19;;;;;;;8.63;5.28;;;21.90;99.90;;;;;;5023528;28;20026;-83
2021/09/06 10:57:47;;;;;;;11.68;7.35;;;22.10;99.90;;;;;;5023499;28;20049;-80
2021/09/06 11:00:21;;;;;;;14.77;8.88;;;22.00;99.90;;;;;;5023223;28;20041;-83
2021/09/06 11:02:49;;;;;;;14.77;9.38;;;21.90;99.90;;;;;;5007140;28;20040;-83
2021/09/06 11:05:21;;;;;;;10.07;6.67;;;21.70;99.90;;;;;;5023399;28;20170;-83
2021/09/06 11:07:48;;;;;;;15.00;8.80;;;21.80;99.90;;;;;;5024681;28;20264;-81
2021/09/06 11:10:22;;;;;;;12.15;8.20;;;21.90;99.90;;;;;;5023203;28;20083;-81
2021/09/06 11:12:56;;;;;;;7.57;5.35;;;22.00;99.90;;;;;;5023483;28;20030;-81
2021/09/06 11:15:29;;;;;;;8.07;5.63;;;22.20;99.90;;;;;;5023076;28;20030;-81
2021/09/06 11:18:04;;;;;;;7.38;4.40;;;22.40;99.90;;;;;;5023179;28;20048;-83
2021/09/06 11:20:32;;;;;;;11.10;7.15;;;22.60;99.90;;;;;;5023303;28;20049;-81
2021/09/06 11:23:10;;;;;;;10.35;5.85;;;21.80;99.90;;;;;;5023375;28;20094;-81
2021/09/06 11:25:40;;;;;;;9.07;5.45;;;22.00;99.90;;;;;;5023129;28;20061;-83
2021/09/06 11:28:13;;;;;;;5.45;2.97;;;22.00;99.90;;;;;;5023427;28;20022;-83
2021/09/06 11:30:43;;;;;;;5.47;3.85;;;22.50;99.90;;;;;;5023020;28;20037;-83
2021/09/06 11:33:10;;;;;;;5.57;3.60;;;22.00;99.90;;;;;;5024636;28;20052;-84
2021/09/06 11:35:37;;;;;;;5.85;3.67;;;21.80;99.90;;;;;;5023241;28;20497;-82
2021/09/06 11:38:04;;;;;;;3.40;2.30;;;21.90;99.90;;;;;;5023209;28;20041;-84
2021/09/06 11:40:30;;;;;;;6.43;4.13;;;22.00;99.90;;;;;;5023078;28;20030;-83
2021/09/06 11:42:58;;;;;;;3.72;2.53;;;22.10;99.90;;;;;;5023240;28;20037;-83
2021/09/06 11:45:24;;;;;;;4.68;2.60;;;22.20;99.90;;;;;;5022767;28;20050;-83
2021/09/06 11:47:50;;;;;;;4.65;2.22;;;22.40;99.90;;;;;;5022832;28;20037;-82
2021/09/06 11:50:16;;;;;;;4.25;2.40;;;22.80;99.90;;;;;;5022946;28;20042;-83
2021/09/06 11:52:44;;;;;;;4.68;1.77;;;22.90;99.90;;;;;;5027764;28;20029;-82
2021/09/06 11:55:13;;;;;;;5.18;2.30;;;23.30;99.90;;;;;;5026296;28;20038;-84
2021/09/06 11:57:39;;;;;;;3.28;1.77;;;23.10;99.90;;;;;;5028167;28;20033;-83
2021/09/06 12:00:06;;;;;;;3.65;1.90;;;23.50;99.90;;;;;;5026788;28;20057;-83
2021/09/06 12:02:52;;;;;;;3.38;1.67;;;23.80;99.90;;;;;;5026742;28;20069;-82
2021/09/06 12:05:19;;;;;;;3.08;1.45;;;23.80;99.90;;;;;;5026781;28;20062;-83
2021/09/06 12:07:56;;;;;;;3.22;1.73;;;24.00;99.90;;;;;;5026504;28;20057;-85
2021/09/06 12:10:26;;;;;;;4.05;1.98;;;24.00;99.90;;;;;;5028008;28;20030;-86
2021/09/06 12:13:04;;;;;;;5.10;3.45;;;24.20;99.90;;;;;;5026825;28;20093;-84
2021/09/06 12:15:32;;;;;;;4.88;2.53;;;23.60;99.90;;;;;;5026689;28;20125;-84
2021/09/06 12:18:17;;;;;;;5.57;2.17;;;23.50;99.90;;;;;;5027640;28;20030;-85
2021/09/06 12:20:44;;;;;;;6.10;2.55;;;23.50;99.90;;;;;;5026474;28;20097;-82
2021/09/06 12:23:32;;;;;;;6.05;1.38;;;23.30;99.90;;;;;;5026511;28;20030;-85
2021/09/06 12:25:58;;;;;;;4.10;2.33;;;23.40;99.90;;;;;;5027550;28;20056;-83
2021/09/06 12:28:24;;;;;;;5.38;3.20;;;23.30;99.90;;;;;;5027577;28;20054;-83
2021/09/06 12:31:04;;;;;;;3.47;2.00;;;23.50;99.90;;;;;;5027439;28;20042;-83
2021/09/06 12:33:30;;;;;;;4.90;2.60;;;23.60;99.90;;;;;;5009821;28;20034;-83
2021/09/06 12:35:59;;;;;;;5.22;2.70;;;23.50;99.90;;;;;;5025873;28;20040;-83
2021/09/06 12:38:25;;;;;;;6.27;3.60;;;23.60;99.90;;;;;;5026213;28;20065;-82
2021/09/06 12:40:50;;;;;;;3.70;2.13;;;23.70;99.90;;;;;;5027188;28;20044;-84
2021/09/06 12:43:16;;;;;;;5.50;3.28;;;23.80;99.90;;;;;;5026105;28;20101;-82
2021/09/06 12:45:42;;;;;;;3.80;1.42;;;23.80;99.90;;;;;;5025869;28;20049;-82
2021/09/06 12:48:08;;;;;;;5.57;2.33;;;23.90;99.90;;;;;;5025421;28;20052;-83
2021/09/06 12:50:34;;;;;;;4.07;2.17;;;23.70;99.90;;;;;;5026815;28;20040;-82